Time;durP1;ratioP1;P1;durP2;ratioP2;P2;SDS_P1;SDS_P2;PMS_P1;PMS_P2;Temp;Humidity;BMP_temperature;BMP_pressure;BME280_temperature;BME280_humidity;BME280_pressure;Samples;Min_cycle;Max_cycle;Signal;HPM_P1;HPM_P2
2022/06/18 00:00:57;;;;;;;5.20;3.00;;;26.30;55.90;;;;;;5035561;28;21530;-86
2022/06/18 00:03:25;;;;;;;3.67;3.07;;;26.20;56.60;;;;;;5037721;28;20512;-84
2022/06/18 00:05:56;;;;;;;2.90;2.53;;;26.20;57.10;;;;;;5040555;28;20514;-84
2022/06/18 00:08:29;;;;;;;4.00;3.60;;;26.00;57.60;;;;;;5044932;28;20831;-83
2022/06/18 00:13:49;;;;;;;4.00;3.70;;;25.80;58.50;;;;;;5037447;28;20495;-85
2022/06/18 00:16:19;;;;;;;3.63;3.23;;;25.80;58.60;;;;;;5034869;28;20488;-83
2022/06/18 00:18:46;;;;;;;3.57;3.27;;;25.70;58.70;;;;;;5036537;28;20481;-83
2022/06/18 00:21:17;;;;;;;3.63;3.33;;;25.60;58.50;;;;;;5019072;28;20543;-83
2022/06/18 00:23:44;;;;;;;3.70;3.40;;;25.50;59.00;;;;;;5034335;28;20649;-84
2022/06/18 00:26:11;;;;;;;4.70;3.43;;;25.50;59.00;;;;;;5037386;28;20457;-82
2022/06/18 00:28:37;;;;;;;5.47;3.20;;;25.40;58.90;;;;;;5035432;28;20470;-84
2022/06/18 00:31:04;;;;;;;3.70;3.07;;;25.40;59.20;;;;;;5017435;28;20452;-83
2022/06/18 00:33:31;;;;;;;3.77;3.47;;;25.40;59.30;;;;;;5035813;28;20626;-85
2022/06/18 00:36:03;;;;;;;3.73;3.43;;;25.40;60.50;;;;;;5037589;28;20496;-83
2022/06/18 00:38:33;;;;;;;3.70;3.40;;;25.30;60.00;;;;;;5019984;28;20478;-84
2022/06/18 00:41:01;;;;;;;3.97;3.67;;;25.30;60.60;;;;;;5021435;28;20448;-84
2022/06/18 00:43:44;;;;;;;3.80;3.50;;;25.20;62.20;;;;;;5036941;28;20479;-84
2022/06/18 00:46:14;;;;;;;4.40;3.63;;;25.30;62.50;;;;;;5037107;28;20495;-83
2022/06/18 00:48:50;;;;;;;5.53;3.30;;;25.20;62.30;;;;;;5035623;28;20584;-83
2022/06/18 00:51:41;;;;;;;4.00;3.10;;;25.10;61.70;;;;;;5037256;28;20534;-83
2022/06/18 00:54:16;;;;;;;3.63;2.77;;;25.00;61.70;;;;;;5013082;28;20465;-83
2022/06/18 00:57:00;;;;;;;3.00;2.50;;;24.80;61.60;;;;;;5037626;28;20468;-82
2022/06/18 00:59:32;;;;;;;2.53;2.33;;;24.70;61.20;;;;;;5037698;28;20816;-84
2022/06/18 01:02:01;;;;;;;2.93;2.50;;;24.60;61.50;;;;;;5036688;28;20525;-85
2022/06/18 01:04:33;;;;;;;3.90;2.50;;;24.50;61.70;;;;;;5038840;28;20457;-86
2022/06/18 01:07:05;;;;;;;3.60;3.30;;;24.50;62.00;;;;;;5020897;28;20447;-86
2022/06/18 01:09:34;;;;;;;2.57;2.37;;;24.50;62.20;;;;;;5038676;28;20456;-83
2022/06/18 01:12:01;;;;;;;2.90;2.53;;;24.50;62.20;;;;;;5039202;28;20466;-84
2022/06/18 01:14:30;;;;;;;2.90;2.70;;;24.60;62.90;;;;;;5039148;28;20449;-85
2022/06/18 01:17:00;;;;;;;3.30;3.00;;;24.50;61.90;;;;;;5021262;28;20488;-86
2022/06/18 01:19:38;;;;;;;6.50;3.17;;;24.70;62.50;;;;;;5039618;28;20463;-88
2022/06/18 01:22:27;;;;;;;4.60;3.30;;;24.90;64.10;;;;;;5003748;28;20476;-82
2022/06/18 01:24:55;;;;;;;3.60;3.27;;;24.90;64.90;;;;;;5041137;28;20467;-84
2022/06/18 01:27:23;;;;;;;3.50;3.10;;;24.70;65.30;;;;;;5042139;28;20456;-84
2022/06/18 01:29:50;;;;;;;5.57;3.20;;;24.40;65.40;;;;;;5022173;28;21048;-84
2022/06/18 01:32:16;;;;;;;3.77;3.47;;;24.10;65.40;;;;;;5040049;28;21167;-84
2022/06/18 01:34:45;;;;;;;3.53;3.23;;;23.90;66.10;;;;;;5024411;28;20471;-84
2022/06/18 01:37:12;;;;;;;3.57;3.20;;;23.80;66.70;;;;;;5035724;28;20484;-84
2022/06/18 01:39:42;;;;;;;2.90;2.70;;;23.80;67.30;;;;;;5038836;28;20456;-83
2022/06/18 01:42:26;;;;;;;2.90;2.70;;;23.80;67.60;;;;;;5021859;28;20990;-82
2022/06/18 01:45:02;;;;;;;3.40;3.10;;;23.90;67.70;;;;;;5016100;28;20459;-84
2022/06/18 01:47:34;;;;;;;3.10;2.87;;;24.00;67.40;;;;;;5030196;28;20571;-83
2022/06/18 01:50:12;;;;;;;3.17;2.87;;;24.00;67.50;;;;;;5033878;28;20463;-83
2022/06/18 01:52:46;;;;;;;3.20;3.00;;;24.00;68.00;;;;;;5037203;28;21041;-85
2022/06/18 01:55:19;;;;;;;3.93;2.90;;;24.10;68.60;;;;;;5029001;28;20455;-83
2022/06/18 01:57:51;;;;;;;3.50;3.20;;;24.10;69.20;;;;;;5032515;28;20504;-85
2022/06/18 02:00:23;;;;;;;3.67;3.37;;;24.10;69.60;;;;;;5032602;28;20456;-84
2022/06/18 02:02:51;;;;;;;3.30;3.00;;;24.10;70.00;;;;;;5016110;28;20510;-82
2022/06/18 02:05:19;;;;;;;2.90;2.70;;;24.20;70.40;;;;;;5033966;28;20492;-83
2022/06/18 02:07:47;;;;;;;3.87;3.57;;;24.10;70.40;;;;;;5034073;28;20547;-84
2022/06/18 02:10:18;;;;;;;6.07;2.93;;;24.00;70.60;;;;;;5038950;28;20468;-84
2022/06/18 02:12:46;;;;;;;3.00;2.70;;;24.00;70.90;;;;;;5037890;28;20472;-83
2022/06/18 02:15:21;;;;;;;3.43;3.07;;;24.00;71.30;;;;;;5037728;28;20459;-83
2022/06/18 02:17:49;;;;;;;3.40;3.20;;;24.00;71.60;;;;;;5020500;28;20483;-85
2022/06/18 02:20:22;;;;;;;3.30;3.00;;;24.00;71.00;;;;;;5048374;28;20540;-85
2022/06/18 02:22:53;;;;;;;3.20;2.90;;;23.90;71.00;;;;;;5052568;28;20480;-82
2022/06/18 02:25:22;;;;;;;3.90;3.13;;;23.90;71.40;;;;;;5041377;28;20471;-83
2022/06/18 02:27:56;;;;;;;3.60;3.30;;;23.70;71.80;;;;;;5043726;28;20455;-85
2022/06/18 02:30:25;;;;;;;3.20;3.00;;;23.70;72.90;;;;;;5039771;28;20468;-85
2022/06/18 02:33:15;;;;;;;3.70;2.97;;;23.70;74.20;;;;;;5047263;28;20479;-84
2022/06/18 02:35:42;;;;;;;3.93;3.17;;;24.00;74.30;;;;;;5057604;28;20448;-83
2022/06/18 02:38:19;;;;;;;5.17;3.50;;;24.00;74.00;;;;;;5043193;28;20486;-82
2022/06/18 02:40:46;;;;;;;4.20;3.10;;;24.00;73.80;;;;;;5050199;28;20487;-83
2022/06/18 02:43:16;;;;;;;4.50;3.53;;;24.10;73.00;;;;;;5021980;28;20575;-83
2022/06/18 02:45:47;;;;;;;2.77;2.57;;;24.00;72.60;;;;;;5037136;28;20579;-83
2022/06/18 02:48:14;;;;;;;4.90;2.90;;;24.00;72.80;;;;;;5037720;28;20571;-83
2022/06/18 02:50:43;;;;;;;3.83;2.90;;;24.10;71.50;;;;;;5024248;28;20456;-85
2022/06/18 02:53:12;;;;;;;3.50;2.60;;;24.00;71.60;;;;;;5037906;28;20487;-83
2022/06/18 02:55:41;;;;;;;3.57;2.87;;;24.00;70.30;;;;;;5038828;28;20468;-83
2022/06/18 02:58:20;;;;;;;3.10;2.90;;;24.00;70.20;;;;;;5017863;28;20484;-83
2022/06/18 03:00:53;;;;;;;3.20;2.77;;;23.90;70.50;;;;;;5036497;28;20480;-81
2022/06/18 03:03:22;;;;;;;4.23;3.60;;;23.90;70.70;;;;;;5022204;28;20480;-86
2022/06/18 03:05:49;;;;;;;3.57;3.20;;;23.90;70.30;;;;;;5039108;28;20444;-85
2022/06/18 03:08:16;;;;;;;3.80;3.50;;;23.90;70.50;;;;;;5035846;28;20491;-85
2022/06/18 03:13:27;;;;;;;3.10;2.87;;;23.70;71.10;;;;;;5033818;28;20911;-86
2022/06/18 03:15:55;;;;;;;3.63;3.33;;;23.50;72.10;;;;;;5033003;28;20471;-83
2022/06/18 03:18:26;;;;;;;2.50;2.30;;;23.40;72.70;;;;;;5035806;28;20488;-83
2022/06/18 03:21:15;;;;;;;3.27;2.97;;;23.30;73.20;;;;;;5032664;28;20561;-86
2022/06/18 03:23:43;;;;;;;3.63;2.77;;;23.60;74.10;;;;;;5018830;28;20475;-86
2022/06/18 03:26:11;;;;;;;3.37;2.97;;;23.70;73.50;;;;;;5020129;28;20468;-84
2022/06/18 03:28:42;;;;;;;2.80;2.60;;;23.70;73.50;;;;;;5036414;28;20579;-82
2022/06/18 03:31:09;;;;;;;3.00;2.80;;;23.60;73.40;;;;;;5045351;28;20481;-85
2022/06/18 03:33:36;;;;;;;4.00;2.80;;;23.50;73.80;;;;;;5048230;28;20444;-82
2022/06/18 03:36:04;;;;;;;2.60;2.40;;;23.50;74.00;;;;;;5027475;28;20483;-83
2022/06/18 03:38:31;;;;;;;3.43;3.13;;;23.40;74.40;;;;;;5031111;28;20459;-87
2022/06/18 03:40:58;;;;;;;2.83;2.60;;;23.40;74.50;;;;;;5057024;28;20449;-86
2022/06/18 03:43:26;;;;;;;3.40;3.10;;;23.70;73.90;;;;;;5063583;28;20483;-85
2022/06/18 03:46:04;;;;;;;3.70;2.90;;;23.70;73.60;;;;;;5053787;28;20471;-83
2022/06/18 03:48:40;;;;;;;3.07;2.77;;;23.50;74.10;;;;;;5046513;28;21734;-85
2022/06/18 03:51:07;;;;;;;3.40;3.10;;;23.30;74.90;;;;;;5032554;28;21015;-82
2022/06/18 03:53:34;;;;;;;3.90;2.87;;;23.10;75.50;;;;;;5058743;28;20507;-83
2022/06/18 03:56:01;;;;;;;3.27;2.90;;;23.00;75.80;;;;;;5015225;28;20463;-84
2022/06/18 03:58:28;;;;;;;4.20;3.60;;;23.10;75.80;;;;;;5055252;28;20822;-85
2022/06/18 04:00:55;;;;;;;3.43;3.10;;;23.10;76.00;;;;;;5035975;28;20460;-85
2022/06/18 04:03:22;;;;;;;4.13;2.93;;;23.20;76.20;;;;;;5049589;28;20492;-86
2022/06/18 04:05:49;;;;;;;3.10;2.80;;;23.50;75.00;;;;;;5025188;28;20486;-82
2022/06/18 04:08:20;;;;;;;2.77;2.50;;;23.50;75.00;;;;;;5040210;28;20457;-82
2022/06/18 04:10:47;;;;;;;3.13;2.83;;;23.60;74.70;;;;;;5046714;28;21126;-84
2022/06/18 04:13:14;;;;;;;3.10;2.90;;;23.70;75.40;;;;;;5067479;22;20521;-85
2022/06/18 04:15:42;;;;;;;3.30;2.93;;;23.50;76.30;;;;;;5055967;28;20945;-84
2022/06/18 04:18:14;;;;;;;4.30;3.07;;;23.30;77.30;;;;;;5047203;28;21008;-83
2022/06/18 04:20:43;;;;;;;4.47;3.60;;;23.20;78.00;;;;;;5052903;28;20502;-86
2022/06/18 04:23:11;;;;;;;8.47;3.10;;;23.20;78.40;;;;;;5067393;28;20464;-84
2022/06/18 04:25:41;;;;;;;2.83;2.70;;;23.10;79.00;;;;;;5087425;28;20496;-84
2022/06/18 04:28:13;;;;;;;3.40;2.43;;;23.10;79.20;;;;;;5065243;28;20462;-86
2022/06/18 04:30:41;;;;;;;5.50;2.90;;;23.30;78.80;;;;;;5084433;28;22404;-84
2022/06/18 04:33:08;;;;;;;2.60;2.40;;;23.10;78.30;;;;;;5060421;28;20487;-84
2022/06/18 04:35:35;;;;;;;4.47;2.93;;;23.10;79.10;;;;;;5081357;28;20470;-84
2022/06/18 04:38:02;;;;;;;3.40;2.50;;;23.20;78.80;;;;;;5082556;28;21025;-85
2022/06/18 04:40:33;;;;;;;2.87;2.53;;;23.40;77.90;;;;;;5083040;28;20477;-85
2022/06/18 04:43:20;;;;;;;2.90;2.70;;;23.50;77.60;;;;;;5068191;28;20470;-85
2022/06/18 04:45:47;;;;;;;2.90;2.70;;;23.80;79.40;;;;;;5084184;28;20462;-86
2022/06/18 04:48:14;;;;;;;5.30;3.20;;;23.90;78.50;;;;;;5062604;28;20540;-87
2022/06/18 04:50:41;;;;;;;3.30;3.10;;;23.80;78.10;;;;;;5079472;28;20470;-84
2022/06/18 04:53:09;;;;;;;2.87;2.67;;;23.70;77.70;;;;;;5087787;28;22209;-83
2022/06/18 04:55:36;;;;;;;3.30;2.60;;;23.60;77.70;;;;;;5055435;28;20542;-84
2022/06/18 04:58:06;;;;;;;3.67;2.90;;;23.50;77.50;;;;;;5060861;28;20481;-84
2022/06/18 05:00:34;;;;;;;2.87;2.67;;;23.50;77.80;;;;;;5064572;28;20584;-84
2022/06/18 05:03:01;;;;;;;2.30;2.20;;;23.40;78.30;;;;;;5091020;28;20462;-86
2022/06/18 05:05:29;;;;;;;3.53;2.70;;;23.50;78.30;;;;;;5093330;28;20474;-83
2022/06/18 05:07:56;;;;;;;3.63;2.50;;;23.50;78.40;;;;;;5092468;28;20458;-85
2022/06/18 05:10:23;;;;;;;4.20;2.53;;;23.40;78.50;;;;;;5069516;28;20485;-86
2022/06/18 05:12:50;;;;;;;4.50;2.60;;;23.50;78.60;;;;;;5079158;28;20475;-87
2022/06/18 05:15:17;;;;;;;2.90;2.70;;;23.40;77.90;;;;;;5081065;28;20480;-82
2022/06/18 05:17:45;;;;;;;2.57;2.37;;;23.40;78.00;;;;;;5099758;28;20982;-85
2022/06/18 05:20:20;;;;;;;3.00;2.80;;;23.50;77.90;;;;;;5084482;28;20471;-81
2022/06/18 05:22:51;;;;;;;3.20;2.73;;;23.50;77.90;;;;;;5102924;28;20592;-83
2022/06/18 05:25:19;;;;;;;6.70;3.53;;;23.50;77.80;;;;;;5097341;28;20427;-84
2022/06/18 05:27:47;;;;;;;3.90;3.60;;;23.50;77.90;;;;;;5072930;28;20478;-83
2022/06/18 05:30:18;;;;;;;2.80;2.40;;;23.50;78.10;;;;;;5072106;28;20448;-83
2022/06/18 05:32:45;;;;;;;3.00;2.70;;;23.60;78.10;;;;;;5060482;28;20512;-83
2022/06/18 05:35:13;;;;;;;4.53;2.77;;;23.70;77.40;;;;;;5077336;28;21390;-82
2022/06/18 05:37:40;;;;;;;5.77;2.70;;;23.60;77.40;;;;;;5078032;28;20484;-85
2022/06/18 05:40:08;;;;;;;3.97;2.87;;;23.80;77.00;;;;;;5078943;28;20522;-85
2022/06/18 05:42:35;;;;;;;4.80;2.50;;;23.90;76.10;;;;;;5077347;28;20479;-85
2022/06/18 05:45:03;;;;;;;3.50;2.77;;;23.80;76.30;;;;;;5061716;28;20463;-85
2022/06/18 05:47:32;;;;;;;4.30;2.20;;;23.70;76.50;;;;;;5061530;28;20490;-85
2022/06/18 05:50:03;;;;;;;5.13;2.70;;;23.80;76.50;;;;;;5062159;28;20481;-85
2022/06/18 05:52:30;;;;;;;2.60;2.47;;;23.90;76.80;;;;;;5073411;28;20467;-86
2022/06/18 05:54:58;;;;;;;3.00;2.77;;;23.90;76.70;;;;;;5079632;28;20458;-84
2022/06/18 05:57:25;;;;;;;3.17;2.80;;;24.00;76.90;;;;;;5080687;28;20478;-83
2022/06/18 05:59:52;;;;;;;3.90;2.60;;;24.00;77.10;;;;;;5078670;28;20458;-85
2022/06/18 06:02:20;;;;;;;5.57;2.80;;;24.20;76.70;;;;;;5060948;28;20485;-84
2022/06/18 06:04:48;;;;;;;2.70;2.50;;;24.30;76.10;;;;;;5068833;28;20991;-86
2022/06/18 06:07:21;;;;;;;3.03;2.63;;;24.30;76.20;;;;;;5095091;28;20465;-83
2022/06/18 06:12:35;;;;;;;5.80;3.10;;;24.50;75.80;;;;;;5083142;28;20470;-85
2022/06/18 06:15:02;;;;;;;3.93;2.77;;;24.60;75.00;;;;;;5061595;28;20500;-85
2022/06/18 06:17:29;;;;;;;2.63;2.43;;;24.40;76.10;;;;;;5064590;28;20473;-85
2022/06/18 06:20:18;;;;;;;3.13;2.83;;;24.60;75.50;;;;;;5064155;28;20467;-84
2022/06/18 06:22:45;;;;;;;3.00;2.80;;;24.80;75.10;;;;;;5062615;28;20478;-85
2022/06/18 06:25:11;;;;;;;2.90;2.70;;;25.00;74.50;;;;;;5064398;28;21720;-84
2022/06/18 06:27:38;;;;;;;6.00;2.77;;;25.10;73.90;;;;;;5077901;28;20481;-84
2022/06/18 06:30:05;;;;;;;3.03;2.83;;;25.20;74.60;;;;;;5079760;28;20461;-83
2022/06/18 06:32:36;;;;;;;3.30;2.77;;;25.40;73.60;;;;;;5061095;28;20474;-83
2022/06/18 06:35:03;;;;;;;2.73;2.50;;;25.30;74.00;;;;;;5065381;28;20464;-85
2022/06/18 06:37:31;;;;;;;5.13;3.07;;;25.70;72.90;;;;;;5063729;28;21054;-85
2022/06/18 06:39:57;;;;;;;3.67;2.70;;;25.80;72.50;;;;;;5083022;28;20473;-82
2022/06/18 06:42:24;;;;;;;3.40;3.10;;;25.80;71.40;;;;;;5086875;28;20577;-85
2022/06/18 06:44:54;;;;;;;2.87;2.67;;;25.90;71.70;;;;;;5086111;28;20455;-83
2022/06/18 06:47:21;;;;;;;2.90;2.60;;;26.20;70.30;;;;;;5066439;28;20455;-84
2022/06/18 06:49:48;;;;;;;3.90;2.73;;;26.10;70.80;;;;;;5066124;28;21811;-83
2022/06/18 06:52:15;;;;;;;3.00;2.10;;;26.30;70.10;;;;;;5066530;28;20489;-82
2022/06/18 06:57:20;;;;;;;3.10;2.50;;;26.40;70.00;;;;;;5089436;28;20442;-84
2022/06/18 06:57:29;;;;;;;6.47;2.90;;;26.60;68.50;;;;;;5090507;28;20476;-84
2022/06/18 06:59:59;;;;;;;4.70;2.90;;;26.80;67.90;;;;;;5074905;28;20549;-84
2022/06/18 07:02:26;;;;;;;3.03;2.67;;;26.90;67.70;;;;;;5072285;28;21600;-85
2022/06/18 07:04:55;;;;;;;2.73;2.53;;;26.80;67.30;;;;;;5083589;28;20467;-84
2022/06/18 07:07:22;;;;;;;4.43;2.70;;;26.80;66.70;;;;;;5082297;28;20535;-85
2022/06/18 07:09:48;;;;;;;3.43;3.13;;;26.70;67.30;;;;;;5081999;28;20478;-85
2022/06/18 07:12:15;;;;;;;3.33;2.87;;;26.70;67.60;;;;;;5062856;28;20469;-84
2022/06/18 07:14:42;;;;;;;2.97;2.77;;;27.20;67.00;;;;;;5068185;28;20465;-84
2022/06/18 07:17:16;;;;;;;5.47;3.03;;;27.50;65.50;;;;;;5064152;28;20458;-86
2022/06/18 07:19:44;;;;;;;4.53;2.87;;;27.50;65.60;;;;;;5083404;28;20840;-83
2022/06/18 07:22:11;;;;;;;2.97;2.77;;;27.50;65.30;;;;;;5070181;28;20500;-84
2022/06/18 07:24:38;;;;;;;3.03;2.83;;;27.50;65.20;;;;;;5065437;28;20459;-86
2022/06/18 07:27:04;;;;;;;4.37;3.00;;;27.60;65.60;;;;;;5084815;28;20446;-83
2022/06/18 07:29:31;;;;;;;3.50;3.10;;;27.70;64.70;;;;;;5083281;28;20466;-85
2022/06/18 07:32:14;;;;;;;2.83;2.63;;;27.70;64.60;;;;;;5084126;28;20477;-83
2022/06/18 07:34:42;;;;;;;3.03;2.70;;;27.70;64.80;;;;;;5061026;28;20459;-85
2022/06/18 07:37:09;;;;;;;3.70;2.70;;;27.60;65.30;;;;;;5059358;28;20466;-83
2022/06/18 07:39:35;;;;;;;3.03;2.73;;;27.70;65.70;;;;;;5077840;28;20483;-80
2022/06/18 07:42:04;;;;;;;3.30;2.90;;;27.80;65.20;;;;;;5059175;28;20470;-84
2022/06/18 07:44:31;;;;;;;2.70;2.50;;;27.80;65.40;;;;;;5061751;28;20474;-82
2022/06/18 07:46:58;;;;;;;2.70;2.50;;;28.10;65.10;;;;;;5080911;28;20554;-84
2022/06/18 07:49:25;;;;;;;3.63;2.40;;;28.30;64.50;;;;;;5077488;28;20451;-82
2022/06/18 07:51:52;;;;;;;4.00;3.23;;;28.30;64.70;;;;;;5062382;28;20590;-81
2022/06/18 07:54:19;;;;;;;3.70;3.07;;;28.60;64.10;;;;;;5063920;28;20527;-82
2022/06/18 07:56:46;;;;;;;3.57;3.07;;;28.60;64.10;;;;;;5061484;28;21103;-82
2022/06/18 07:59:14;;;;;;;2.80;2.60;;;28.70;63.80;;;;;;5062099;28;20478;-85
2022/06/18 08:01:40;;;;;;;3.67;3.37;;;28.70;63.80;;;;;;5084349;28;20974;-83
2022/06/18 08:04:07;;;;;;;3.23;2.40;;;28.80;63.20;;;;;;5082429;28;21296;-80
2022/06/18 08:06:34;;;;;;;4.30;2.83;;;28.80;63.00;;;;;;5060612;28;20495;-83
2022/06/18 08:09:01;;;;;;;3.00;2.80;;;28.80;62.90;;;;;;5067065;28;20450;-81
2022/06/18 08:11:29;;;;;;;4.17;3.20;;;29.00;62.70;;;;;;5094487;28;20442;-85
2022/06/18 08:13:57;;;;;;;5.00;3.23;;;29.10;63.50;;;;;;5097307;28;20462;-83
2022/06/18 08:16:24;;;;;;;3.17;2.87;;;29.10;62.80;;;;;;5097544;28;20518;-86
2022/06/18 08:18:54;;;;;;;3.83;3.10;;;29.10;62.70;;;;;;5085635;28;20478;-83
2022/06/18 08:21:29;;;;;;;4.40;3.43;;;29.10;62.50;;;;;;5079913;28;20455;-82
2022/06/18 08:24:10;;;;;;;3.97;3.50;;;29.40;61.80;;;;;;5079666;28;20553;-85
2022/06/18 08:26:38;;;;;;;3.67;3.00;;;29.70;61.30;;;;;;5086705;28;20497;-83
2022/06/18 08:29:10;;;;;;;4.73;3.27;;;29.70;60.90;;;;;;5077900;28;20462;-82
2022/06/18 08:31:36;;;;;;;3.50;3.13;;;29.90;60.70;;;;;;5061941;28;20488;-85
2022/06/18 08:34:03;;;;;;;5.70;3.40;;;30.30;59.70;;;;;;5060575;28;20530;-83
2022/06/18 08:36:30;;;;;;;4.03;3.63;;;30.50;59.10;;;;;;5063167;28;20459;-85
2022/06/18 08:38:57;;;;;;;4.80;3.37;;;30.80;58.50;;;;;;5081719;28;20486;-85
2022/06/18 08:41:42;;;;;;;4.93;3.10;;;30.80;57.80;;;;;;5061920;28;20447;-83
2022/06/18 08:44:36;;;;;;;4.27;3.87;;;30.90;58.00;;;;;;5079342;28;21027;-82
2022/06/18 08:47:41;;;;;;;4.20;2.93;;;30.80;58.10;;;;;;5065130;28;20533;-83
2022/06/18 08:50:29;;;;;;;3.80;3.20;;;31.40;56.90;;;;;;5063113;28;20469;-84
2022/06/18 08:53:08;;;;;;;4.37;3.70;;;31.30;56.90;;;;;;5068806;28;20552;-85
2022/06/18 08:55:50;;;;;;;3.53;3.27;;;31.20;56.70;;;;;;5093583;28;20442;-86
2022/06/18 08:58:35;;;;;;;6.30;3.20;;;31.80;56.20;;;;;;5092994;28;20514;-87
2022/06/18 09:01:18;;;;;;;3.40;3.10;;;31.70;54.40;;;;;;5092258;28;20438;-86
2022/06/18 09:03:48;;;;;;;5.53;3.60;;;31.30;53.20;;;;;;5092588;28;20442;-86
2022/06/18 09:06:23;;;;;;;4.03;3.03;;;32.60;51.50;;;;;;5092829;28;20464;-84
2022/06/18 09:09:11;;;;;;;3.50;3.20;;;33.30;50.10;;;;;;5089573;28;20458;-85
2022/06/18 09:11:54;;;;;;;4.80;3.07;;;33.40;49.60;;;;;;5094679;28;20489;-84
2022/06/18 09:14:44;;;;;;;3.93;3.30;;;33.90;48.80;;;;;;5110383;28;20552;-88
2022/06/18 09:17:23;;;;;;;6.47;3.40;;;33.30;47.80;;;;;;5111452;28;20433;-89
2022/06/18 09:20:00;;;;;;;3.97;3.53;;;33.00;48.80;;;;;;5109480;28;20492;-87
2022/06/18 09:22:30;;;;;;;5.33;3.23;;;33.40;48.30;;;;;;5088816;28;20478;-88
2022/06/18 09:25:08;;;;;;;6.43;3.30;;;34.60;46.10;;;;;;5080974;28;20478;-87
2022/06/18 09:27:43;;;;;;;3.60;3.40;;;34.40;45.90;;;;;;5088907;28;20446;-87
2022/06/18 09:30:17;;;;;;;5.90;3.10;;;34.90;44.90;;;;;;5069668;28;20448;-88
2022/06/18 09:32:53;;;;;;;5.90;3.13;;;34.70;45.00;;;;;;5065303;28;20565;-83
2022/06/18 09:35:40;;;;;;;4.10;3.40;;;34.00;46.40;;;;;;5055983;28;20438;-84
2022/06/18 09:38:13;;;;;;;5.53;3.10;;;33.50;47.50;;;;;;5056179;28;20550;-88
2022/06/18 09:40:57;;;;;;;3.90;3.60;;;34.00;47.30;;;;;;5080222;28;20458;-84
2022/06/18 09:43:59;;;;;;;6.30;3.17;;;33.90;47.00;;;;;;5075459;28;20996;-83
2022/06/18 09:46:47;;;;;;;3.70;3.40;;;35.70;44.40;;;;;;5075845;28;20447;-82
2022/06/18 09:49:14;;;;;;;2.90;2.60;;;36.50;43.20;;;;;;5058881;28;20441;-85
2022/06/18 09:52:04;;;;;;;4.03;3.43;;;36.20;43.30;;;;;;5078746;28;20470;-85
2022/06/18 09:54:36;;;;;;;5.03;3.57;;;37.20;41.40;;;;;;5079264;28;20569;-85
2022/06/18 09:57:04;;;;;;;3.80;3.47;;;36.40;41.70;;;;;;5076867;28;20459;-84
2022/06/18 09:59:39;;;;;;;5.20;3.03;;;35.50;42.40;;;;;;5059887;28;20494;-83
2022/06/18 10:02:18;;;;;;;6.83;3.40;;;35.60;42.70;;;;;;5082033;28;20462;-89
2022/06/18 10:07:36;;;;;;;6.80;3.37;;;35.50;42.20;;;;;;5067596;28;21706;-85
2022/06/18 10:10:16;;;;;;;5.03;3.30;;;35.40;42.80;;;;;;5068588;28;20500;-84
2022/06/18 10:12:55;;;;;;;4.93;3.20;;;35.60;42.40;;;;;;5067826;28;20504;-83
2022/06/18 10:15:24;;;;;;;6.83;3.43;;;37.50;39.20;;;;;;5083388;28;20466;-86
2022/06/18 10:18:16;;;;;;;4.53;4.13;;;36.90;39.40;;;;;;5087408;28;20807;-87
2022/06/18 10:21:02;;;;;;;3.53;3.20;;;36.40;40.00;;;;;;5084975;28;20449;-85
2022/06/18 10:23:39;;;;;;;5.03;3.20;;;38.10;38.80;;;;;;5086050;28;20500;-86
2022/06/18 10:26:43;;;;;;;8.90;3.10;;;38.40;38.00;;;;;;5083696;28;20453;-84
2022/06/18 10:29:42;;;;;;;8.43;3.20;;;37.30;38.30;;;;;;5070120;28;20450;-86
2022/06/18 10:32:42;;;;;;;4.70;3.60;;;36.50;39.10;;;;;;5052457;28;20474;-85
2022/06/18 10:35:24;;;;;;;5.70;3.10;;;36.20;39.60;;;;;;5091265;28;20540;-87
2022/06/18 10:38:14;;;;;;;3.30;2.97;;;36.20;40.10;;;;;;5070941;28;20453;-85
2022/06/18 10:41:03;;;;;;;4.93;3.43;;;36.40;38.60;;;;;;5096371;28;20442;-87
2022/06/18 10:43:48;;;;;;;5.30;3.43;;;36.50;38.60;;;;;;5095478;28;20501;-86
2022/06/18 10:46:20;;;;;;;8.40;3.47;;;36.40;38.50;;;;;;5083026;28;20469;-85
2022/06/18 10:48:54;;;;;;;9.57;3.60;;;36.30;38.70;;;;;;5080703;28;20501;-86
2022/06/18 10:51:26;;;;;;;6.67;3.13;;;36.20;39.20;;;;;;5096682;28;20507;-89
2022/06/18 10:53:56;;;;;;;5.23;3.07;;;36.30;38.50;;;;;;5094815;28;20533;-87
2022/06/18 10:56:29;;;;;;;3.67;2.70;;;36.50;38.20;;;;;;5097906;28;20450;-83
2022/06/18 10:59:01;;;;;;;4.40;3.60;;;37.50;36.90;;;;;;5078778;28;20501;-84
2022/06/18 11:01:44;;;;;;;7.03;3.10;;;37.10;37.40;;;;;;5094601;28;20487;-84
2022/06/18 11:04:25;;;;;;;8.83;3.50;;;36.70;38.20;;;;;;5098256;28;20434;-87
2022/06/18 11:06:59;;;;;;;7.30;3.70;;;37.00;38.00;;;;;;5076740;28;20585;-84
2022/06/18 11:09:29;;;;;;;6.00;3.30;;;36.80;37.70;;;;;;5089772;28;20457;-84
2022/06/18 11:12:00;;;;;;;7.37;3.90;;;36.80;37.70;;;;;;5071791;28;20873;-85
2022/06/18 11:14:41;;;;;;;4.43;3.83;;;36.70;37.50;;;;;;5090773;28;21153;-85
2022/06/18 11:17:43;;;;;;;4.73;3.80;;;37.10;37.50;;;;;;5088697;28;20485;-87
2022/06/18 11:20:23;;;;;;;7.17;3.60;;;37.70;36.90;;;;;;5078969;28;20535;-84
2022/06/18 11:23:03;;;;;;;4.40;2.87;;;38.20;36.20;;;;;;5069175;28;20481;-84
2022/06/18 11:25:44;;;;;;;7.20;3.90;;;38.00;36.20;;;;;;5086437;28;20461;-83
2022/06/18 11:28:33;;;;;;;8.23;3.50;;;37.80;36.60;;;;;;5082154;28;20427;-82
2022/06/18 11:31:03;;;;;;;4.93;3.87;;;37.10;37.40;;;;;;5080066;28;20445;-83
2022/06/18 11:33:32;;;;;;;8.70;4.00;;;36.90;37.90;;;;;;5077171;28;21127;-84
2022/06/18 11:36:19;;;;;;;3.53;3.23;;;36.90;37.90;;;;;;5079063;28;20458;-83
2022/06/18 11:38:54;;;;;;;8.03;3.60;;;38.70;36.20;;;;;;5082251;28;20462;-83
2022/06/18 11:41:35;;;;;;;8.90;4.30;;;38.60;36.10;;;;;;5082107;28;20456;-84
2022/06/18 11:44:05;;;;;;;6.17;3.87;;;37.90;36.90;;;;;;5086978;28;20437;-84
2022/06/18 11:46:56;;;;;;;6.80;4.33;;;37.80;37.30;;;;;;5081528;28;21045;-82
2022/06/18 11:49:29;;;;;;;8.67;4.20;;;38.50;36.20;;;;;;5081923;28;20517;-83
2022/06/18 11:52:08;;;;;;;5.83;3.63;;;38.70;36.20;;;;;;5066476;28;20997;-85
2022/06/18 11:55:00;;;;;;;5.00;3.43;;;38.00;36.20;;;;;;5082705;28;20467;-82
2022/06/18 11:57:33;;;;;;;7.27;3.90;;;37.50;36.90;;;;;;5085037;28;20453;-82
2022/06/18 12:00:33;;;;;;;5.03;3.60;;;37.10;37.70;;;;;;5064959;28;20958;-85
2022/06/18 12:03:21;;;;;;;6.40;3.43;;;37.00;38.70;;;;;;5061623;28;20876;-84
2022/06/18 12:05:56;;;;;;;5.20;3.30;;;37.30;37.60;;;;;;5083511;28;21035;-84
2022/06/18 12:08:24;;;;;;;6.90;3.30;;;39.00;35.20;;;;;;5064482;28;20493;-84
2022/06/18 12:11:23;;;;;;;4.43;3.23;;;39.20;34.70;;;;;;5057574;28;20444;-81
2022/06/18 12:14:01;;;;;;;6.07;3.43;;;39.60;33.80;;;;;;5057429;28;20465;-85
2022/06/18 12:16:51;;;;;;;6.90;4.00;;;38.60;35.00;;;;;;5082284;28;20497;-83
2022/06/18 12:19:35;;;;;;;6.50;3.73;;;38.30;35.90;;;;;;5084376;28;20966;-85
2022/06/18 12:22:39;;;;;;;6.07;2.97;;;37.60;36.20;;;;;;5093809;28;20472;-82
2022/06/18 12:25:15;;;;;;;6.57;3.77;;;37.30;36.90;;;;;;5078368;28;20500;-86
2022/06/18 12:28:01;;;;;;;4.20;3.63;;;37.50;36.60;;;;;;5079511;28;20446;-83
2022/06/18 12:30:32;;;;;;;7.13;3.67;;;38.00;36.50;;;;;;5079448;28;20461;-84
2022/06/18 12:33:56;;;;;;;4.30;3.40;;;37.50;36.30;;;;;;5083840;28;20474;-80
2022/06/18 12:36:35;;;;;;;5.10;3.60;;;37.30;36.70;;;;;;5011906;28;20476;-85
2022/06/18 12:39:15;;;;;;;9.30;3.33;;;37.60;36.70;;;;;;5011645;28;20945;-82
2022/06/18 12:41:54;;;;;;;4.50;3.80;;;38.50;35.60;;;;;;5257700;22;20458;-83
2022/06/18 12:44:33;;;;;;;4.40;3.70;;;38.20;36.00;;;;;;5037908;28;20448;-87
2022/06/18 12:47:13;;;;;;;5.00;3.40;;;37.50;36.70;;;;;;5044575;28;20451;-82
2022/06/18 12:50:14;;;;;;;8.43;4.10;;;37.60;36.10;;;;;;5058875;28;20467;-84
2022/06/18 12:53:07;;;;;;;6.70;4.00;;;38.20;34.90;;;;;;5064961;28;20479;-85
2022/06/18 12:55:40;;;;;;;9.17;3.67;;;37.40;36.00;;;;;;5053068;28;20455;-82
2022/06/18 12:58:13;;;;;;;7.50;3.93;;;37.10;36.40;;;;;;5049992;28;20473;-86
2022/06/18 13:01:12;;;;;;;5.50;3.27;;;37.20;36.30;;;;;;5072516;28;20561;-84
2022/06/18 13:04:16;;;;;;;9.00;4.30;;;38.10;35.10;;;;;;5056245;28;20538;-87
2022/06/18 13:07:24;;;;;;;5.63;3.90;;;38.60;34.10;;;;;;5029768;28;20447;-85
2022/06/18 13:10:21;;;;;;;7.37;4.10;;;37.90;35.00;;;;;;5076863;28;20463;-86
2022/06/18 13:12:51;;;;;;;8.13;3.93;;;37.90;34.70;;;;;;5051287;28;20551;-88
2022/06/18 13:15:32;;;;;;;9.63;3.90;;;37.60;34.40;;;;;;5081266;28;20441;-86
2022/06/18 13:18:12;;;;;;;7.90;3.87;;;37.40;34.50;;;;;;5081325;28;20451;-89
2022/06/18 13:20:43;;;;;;;6.13;3.90;;;37.70;34.50;;;;;;5055902;28;22275;-86
2022/06/18 13:29:07;;;;;;;9.30;4.10;;;38.60;32.70;;;;;;5067667;28;20473;-81
2022/06/18 13:31:49;;;;;;;9.53;3.93;;;38.40;33.00;;;;;;5048373;28;20471;-85
2022/06/18 13:34:34;;;;;;;6.80;3.40;;;38.10;33.00;;;;;;5054970;28;20451;-87
2022/06/18 13:37:27;;;;;;;6.90;3.50;;;37.90;33.50;;;;;;5043748;28;20547;-84
2022/06/18 13:40:25;;;;;;;5.90;3.83;;;37.20;34.10;;;;;;5072397;28;20478;-87